Terminal Aerodrome Forecast
Issued by NWS

Home | Current Version | Previous Version | Text Only | Print | Product List | Glossary On
Versions: 1 2 3 4 5 6 7 8 9 10 11 12
000
FTUS45 KRIW 181700
TAFJAC
TAF
KJAC 181720Z 1818/1918 20010G15KT P6SM VCTS SCT060CB OVC100
     FM190300 19006KT P6SM VCSH FEW060 BKN090
     FM190800 VRB05KT P6SM VCSH SCT050 BKN060
     FM191600 25007KT P6SM SCT070=

USA.gov is the U.S. government's official web portal to all federal, state and local government web resources and services.